Terminal Aerodrome Forecast
Issued by NWS

Home | Current Version | Previous Version | Text Only | Print | Product List | Glossary On
Versions: 1 2 3 4 5 6 7 8 9 10 11 12 13 14 15 16
000
FTUS43 KDTX 161720
TAFPTK
TAF
KPTK 161720Z 1618/1718 15005KT 5SM BR SCT040 OVC060
      TEMPO 1618/1621 2SM -FZRASNPL OVC040
     FM162100 10005KT 4SM -FZRAPL BR BKN028 OVC040
     FM170200 10005KT 2SM -FZRA BR OVC012
     FM170600 10006KT 1SM RA BR OVC003
     FM171300 15005KT 3/4SM -SHRA BR OVC003=

USA.gov is the U.S. government's official web portal to all federal, state and local government web resources and services.